Search for the current weather situation

Metar

Metar
TNCC 220000Z AUTO 11013KT 9999 NCD 27/23 Q1012 NOSIG
Decoded Metar

TAF

TAF
TNCC 220000Z AUTO 11013KT 9999 NCD 27/23 Q1012 NOSIG
Decoded TAF
Top